sensor_id;sensor_type;location;lat;lon;timestamp;temperature;humidity
16140;DHT22;8175;49.326;12.690;2023-04-19T00:00:28;6.90;99.90
16140;DHT22;8175;49.326;12.690;2023-04-19T00:02:53;7.00;99.90
16140;DHT22;8175;49.326;12.690;2023-04-19T00:05:20;7.00;99.90
16140;DHT22;8175;49.326;12.690;2023-04-19T00:07:48;7.00;99.90
16140;DHT22;8175;49.326;12.690;2023-04-19T00:10:14;7.00;99.90
16140;DHT22;8175;49.326;12.690;2023-04-19T00:12:39;7.10;99.90
16140;DHT22;8175;49.326;12.690;2023-04-19T00:15:05;7.10;99.90
16140;DHT22;8175;49.326;12.690;2023-04-19T00:17:32;7.10;99.90
16140;DHT22;8175;49.326;12.690;2023-04-19T00:19:58;7.10;99.90
16140;DHT22;8175;49.326;12.690;2023-04-19T00:22:24;7.10;99.90
16140;DHT22;8175;49.326;12.690;2023-04-19T00:24:50;7.10;99.90
16140;DHT22;8175;49.326;12.690;2023-04-19T00:27:16;7.00;99.90
16140;DHT22;8175;49.326;12.690;2023-04-19T00:29:41;7.00;99.90
16140;DHT22;8175;49.326;12.690;2023-04-19T00:32:07;7.00;99.90
16140;DHT22;8175;49.326;12.690;2023-04-19T00:34:33;6.90;99.90
16140;DHT22;8175;49.326;12.690;2023-04-19T00:36:58;6.90;99.90
16140;DHT22;8175;49.326;12.690;2023-04-19T00:39:24;6.80;99.90
16140;DHT22;8175;49.326;12.690;2023-04-19T00:41:50;6.80;99.90
16140;DHT22;8175;49.326;12.690;2023-04-19T00:44:15;6.70;99.90
16140;DHT22;8175;49.326;12.690;2023-04-19T00:46:41;6.80;99.90
16140;DHT22;8175;49.326;12.690;2023-04-19T00:49:08;6.80;99.90
16140;DHT22;8175;49.326;12.690;2023-04-19T00:51:34;6.80;99.90
16140;DHT22;8175;49.326;12.690;2023-04-19T00:54:02;6.70;99.90
16140;DHT22;8175;49.326;12.690;2023-04-19T00:56:28;6.80;99.90
16140;DHT22;8175;49.326;12.690;2023-04-19T00:58:55;6.80;99.90
16140;DHT22;8175;49.326;12.690;2023-04-19T01:01:21;6.70;99.90
16140;DHT22;8175;49.326;12.690;2023-04-19T01:03:47;6.70;99.90
16140;DHT22;8175;49.326;12.690;2023-04-19T01:06:13;6.80;99.90
16140;DHT22;8175;49.326;12.690;2023-04-19T01:08:39;6.80;99.90
16140;DHT22;8175;49.326;12.690;2023-04-19T01:11:05;6.70;99.90
16140;DHT22;8175;49.326;12.690;2023-04-19T01:13:32;6.70;99.90
16140;DHT22;8175;49.326;12.690;2023-04-19T01:15:59;6.70;99.90
16140;DHT22;8175;49.326;12.690;2023-04-19T01:18:25;6.60;99.90
16140;DHT22;8175;49.326;12.690;2023-04-19T01:20:53;6.60;99.90
16140;DHT22;8175;49.326;12.690;2023-04-19T01:23:19;6.60;99.90
16140;DHT22;8175;49.326;12.690;2023-04-19T06:40:09;7.10;99.90
16140;DHT22;8175;49.326;12.690;2023-04-19T06:42:36;7.10;99.90
16140;DHT22;8175;49.326;12.690;2023-04-19T06:45:02;7.20;99.90
16140;DHT22;8175;49.326;12.690;2023-04-19T06:47:28;7.20;99.90
16140;DHT22;8175;49.326;12.690;2023-04-19T06:49:55;7.20;99.90
16140;DHT22;8175;49.326;12.690;2023-04-19T06:52:21;7.30;99.90
16140;DHT22;8175;49.326;12.690;2023-04-19T06:54:48;7.40;99.90
16140;DHT22;8175;49.326;12.690;2023-04-19T06:57:14;7.40;99.90
16140;DHT22;8175;49.326;12.690;2023-04-19T06:59:40;7.50;99.90
16140;DHT22;8175;49.326;12.690;2023-04-19T07:02:06;7.70;99.90
16140;DHT22;8175;49.326;12.690;2023-04-19T07:04:32;7.70;99.90
16140;DHT22;8175;49.326;12.690;2023-04-19T07:06:58;7.80;99.90
16140;DHT22;8175;49.326;12.690;2023-04-19T07:09:23;7.80;99.90
16140;DHT22;8175;49.326;12.690;2023-04-19T07:11:49;7.70;99.90
16140;DHT22;8175;49.326;12.690;2023-04-19T07:14:16;7.70;99.90
16140;DHT22;8175;49.326;12.690;2023-04-19T07:16:44;7.70;99.90
16140;DHT22;8175;49.326;12.690;2023-04-19T07:19:10;7.60;99.90
16140;DHT22;8175;49.326;12.690;2023-04-19T07:21:36;7.60;99.90
16140;DHT22;8175;49.326;12.690;2023-04-19T07:24:03;7.50;99.90
16140;DHT22;8175;49.326;12.690;2023-04-19T07:26:29;7.60;99.90
16140;DHT22;8175;49.326;12.690;2023-04-19T07:28:55;7.70;99.90
16140;DHT22;8175;49.326;12.690;2023-04-19T07:31:21;7.70;99.90
16140;DHT22;8175;49.326;12.690;2023-04-19T07:33:49;7.70;99.90
16140;DHT22;8175;49.326;12.690;2023-04-19T07:36:14;7.70;99.90
16140;DHT22;8175;49.326;12.690;2023-04-19T07:38:40;7.70;99.90
16140;DHT22;8175;49.326;12.690;2023-04-19T07:41:06;7.70;99.90
16140;DHT22;8175;49.326;12.690;2023-04-19T07:43:31;7.70;99.90
16140;DHT22;8175;49.326;12.690;2023-04-19T07:45:57;7.70;99.90
16140;DHT22;8175;49.326;12.690;2023-04-19T07:48:23;7.70;99.90
16140;DHT22;8175;49.326;12.690;2023-04-19T07:50:48;7.70;99.90
16140;DHT22;8175;49.326;12.690;2023-04-19T07:53:14;7.70;99.90
16140;DHT22;8175;49.326;12.690;2023-04-19T07:55:40;7.60;99.90
16140;DHT22;8175;49.326;12.690;2023-04-19T07:58:06;7.70;99.90
16140;DHT22;8175;49.326;12.690;2023-04-19T08:00:32;7.70;99.90
16140;DHT22;8175;49.326;12.690;2023-04-19T08:03:01;7.80;99.90
16140;DHT22;8175;49.326;12.690;2023-04-19T08:05:26;7.80;99.90
16140;DHT22;8175;49.326;12.690;2023-04-19T08:07:52;7.80;99.90
16140;DHT22;8175;49.326;12.690;2023-04-19T08:10:19;7.80;99.90
16140;DHT22;8175;49.326;12.690;2023-04-19T08:12:45;7.70;99.90
16140;DHT22;8175;49.326;12.690;2023-04-19T08:15:11;7.70;99.90
16140;DHT22;8175;49.326;12.690;2023-04-19T08:17:36;7.70;99.90
16140;DHT22;8175;49.326;12.690;2023-04-19T08:20:02;7.80;99.90
16140;DHT22;8175;49.326;12.690;2023-04-19T08:22:28;7.60;99.90
16140;DHT22;8175;49.326;12.690;2023-04-19T08:24:54;7.60;99.90
16140;DHT22;8175;49.326;12.690;2023-04-19T08:27:20;7.50;99.90
16140;DHT22;8175;49.326;12.690;2023-04-19T08:29:46;7.60;99.90
16140;DHT22;8175;49.326;12.690;2023-04-19T08:32:11;7.70;99.90
16140;DHT22;8175;49.326;12.690;2023-04-19T08:34:38;7.70;99.90
16140;DHT22;8175;49.326;12.690;2023-04-19T08:37:05;7.80;99.90
16140;DHT22;8175;49.326;12.690;2023-04-19T08:39:32;8.00;99.90
16140;DHT22;8175;49.326;12.690;2023-04-19T08:42:06;8.00;99.90
16140;DHT22;8175;49.326;12.690;2023-04-19T08:44:33;8.00;99.90
16140;DHT22;8175;49.326;12.690;2023-04-19T08:46:59;8.00;99.90
16140;DHT22;8175;49.326;12.690;2023-04-19T08:49:28;8.00;99.90
16140;DHT22;8175;49.326;12.690;2023-04-19T08:51:56;7.90;99.90
16140;DHT22;8175;49.326;12.690;2023-04-19T08:54:22;7.80;99.90
16140;DHT22;8175;49.326;12.690;2023-04-19T08:56:49;7.80;99.90
16140;DHT22;8175;49.326;12.690;2023-04-19T08:59:14;7.60;99.90
16140;DHT22;8175;49.326;12.690;2023-04-19T09:01:40;7.60;99.90
16140;DHT22;8175;49.326;12.690;2023-04-19T09:04:06;7.60;99.90
16140;DHT22;8175;49.326;12.690;2023-04-19T09:06:36;7.60;99.90
16140;DHT22;8175;49.326;12.690;2023-04-19T09:09:22;7.60;99.90
16140;DHT22;8175;49.326;12.690;2023-04-19T09:11:48;7.50;99.90
16140;DHT22;8175;49.326;12.690;2023-04-19T09:14:17;7.50;99.90
16140;DHT22;8175;49.326;12.690;2023-04-19T09:16:43;7.50;99.90
16140;DHT22;8175;49.326;12.690;2023-04-19T09:19:09;7.50;99.90
16140;DHT22;8175;49.326;12.690;2023-04-19T09:21:37;7.60;99.90
16140;DHT22;8175;49.326;12.690;2023-04-19T09:24:03;7.60;99.90
16140;DHT22;8175;49.326;12.690;2023-04-19T09:26:29;7.60;99.90
16140;DHT22;8175;49.326;12.690;2023-04-19T09:31:29;7.70;99.90
16140;DHT22;8175;49.326;12.690;2023-04-19T09:33:56;7.60;99.90
16140;DHT22;8175;49.326;12.690;2023-04-19T09:36:32;7.50;99.90
16140;DHT22;8175;49.326;12.690;2023-04-19T09:38:58;7.40;99.90
16140;DHT22;8175;49.326;12.690;2023-04-19T09:41:25;7.40;99.90
16140;DHT22;8175;49.326;12.690;2023-04-19T09:43:51;7.40;99.90
16140;DHT22;8175;49.326;12.690;2023-04-19T09:46:32;7.30;99.90
16140;DHT22;8175;49.326;12.690;2023-04-19T09:51:46;7.20;99.90
16140;DHT22;8175;49.326;12.690;2023-04-19T09:54:14;7.10;99.90
16140;DHT22;8175;49.326;12.690;2023-04-19T09:56:40;7.00;99.90
16140;DHT22;8175;49.326;12.690;2023-04-19T09:59:08;6.90;99.90
16140;DHT22;8175;49.326;12.690;2023-04-19T10:04:04;6.60;99.90
16140;DHT22;8175;49.326;12.690;2023-04-19T10:06:34;6.60;99.90
16140;DHT22;8175;49.326;12.690;2023-04-19T10:09:01;6.50;99.90
16140;DHT22;8175;49.326;12.690;2023-04-19T10:11:36;6.50;99.90
16140;DHT22;8175;49.326;12.690;2023-04-19T10:14:09;6.40;99.90
16140;DHT22;8175;49.326;12.690;2023-04-19T10:16:36;6.40;99.90
16140;DHT22;8175;49.326;12.690;2023-04-19T10:19:08;6.40;99.90
16140;DHT22;8175;49.326;12.690;2023-04-19T10:21:35;6.30;99.90
16140;DHT22;8175;49.326;12.690;2023-04-19T10:24:01;6.30;99.90
16140;DHT22;8175;49.326;12.690;2023-04-19T10:26:27;6.20;99.90
16140;DHT22;8175;49.326;12.690;2023-04-19T10:28:54;6.30;99.90
16140;DHT22;8175;49.326;12.690;2023-04-19T10:31:20;6.20;99.90
16140;DHT22;8175;49.326;12.690;2023-04-19T10:33:48;6.30;99.90
16140;DHT22;8175;49.326;12.690;2023-04-19T10:36:16;6.40;99.90
16140;DHT22;8175;49.326;12.690;2023-04-19T10:38:49;6.30;99.90
16140;DHT22;8175;49.326;12.690;2023-04-19T10:41:20;6.30;99.90
16140;DHT22;8175;49.326;12.690;2023-04-19T10:44:08;6.30;99.90
16140;DHT22;8175;49.326;12.690;2023-04-19T10:49:04;6.50;99.90
16140;DHT22;8175;49.326;12.690;2023-04-19T10:51:34;6.50;99.90
16140;DHT22;8175;49.326;12.690;2023-04-19T10:54:08;6.50;99.90
16140;DHT22;8175;49.326;12.690;2023-04-19T11:01:59;6.80;99.90
16140;DHT22;8175;49.326;12.690;2023-04-19T11:07:06;7.70;99.90
16140;DHT22;8175;49.326;12.690;2023-04-19T11:09:34;7.80;99.90
16140;DHT22;8175;49.326;12.690;2023-04-19T11:12:20;7.80;99.90
16140;DHT22;8175;49.326;12.690;2023-04-19T11:14:48;7.90;99.90
16140;DHT22;8175;49.326;12.690;2023-04-19T11:17:26;8.10;99.90
16140;DHT22;8175;49.326;12.690;2023-04-19T11:22:36;8.20;99.90
16140;DHT22;8175;49.326;12.690;2023-04-19T11:27:34;9.00;99.90
16140;DHT22;8175;49.326;12.690;2023-04-19T11:30:11;9.10;99.90
16140;DHT22;8175;49.326;12.690;2023-04-19T11:32:47;10.20;99.90
16140;DHT22;8175;49.326;12.690;2023-04-19T11:35:13;11.60;99.90
16140;DHT22;8175;49.326;12.690;2023-04-19T11:37:39;12.10;99.90
16140;DHT22;8175;49.326;12.690;2023-04-19T11:40:06;12.60;99.90
16140;DHT22;8175;49.326;12.690;2023-04-19T11:42:33;14.40;99.90
16140;DHT22;8175;49.326;12.690;2023-04-19T11:45:00;15.60;99.90
16140;DHT22;8175;49.326;12.690;2023-04-19T11:47:26;14.00;99.90
16140;DHT22;8175;49.326;12.690;2023-04-19T11:49:54;13.50;99.90
16140;DHT22;8175;49.326;12.690;2023-04-19T11:52:22;12.30;99.90
16140;DHT22;8175;49.326;12.690;2023-04-19T11:54:52;10.90;99.90
16140;DHT22;8175;49.326;12.690;2023-04-19T11:57:30;11.20;99.90
16140;DHT22;8175;49.326;12.690;2023-04-19T12:00:06;12.00;99.90
16140;DHT22;8175;49.326;12.690;2023-04-19T12:02:37;11.50;99.90
16140;DHT22;8175;49.326;12.690;2023-04-19T12:05:07;10.60;99.90
16140;DHT22;8175;49.326;12.690;2023-04-19T12:07:33;10.60;99.90
16140;DHT22;8175;49.326;12.690;2023-04-19T12:10:07;10.50;99.90
16140;DHT22;8175;49.326;12.690;2023-04-19T12:12:34;10.00;99.90
16140;DHT22;8175;49.326;12.690;2023-04-19T12:15:00;9.40;99.90
16140;DHT22;8175;49.326;12.690;2023-04-19T12:17:26;9.00;99.90
16140;DHT22;8175;49.326;12.690;2023-04-19T12:19:51;8.70;99.90
16140;DHT22;8175;49.326;12.690;2023-04-19T12:22:18;8.70;99.90
16140;DHT22;8175;49.326;12.690;2023-04-19T12:24:45;8.60;99.90
16140;DHT22;8175;49.326;12.690;2023-04-19T12:27:11;8.80;99.90
16140;DHT22;8175;49.326;12.690;2023-04-19T12:29:37;8.90;99.90
16140;DHT22;8175;49.326;12.690;2023-04-19T12:32:03;9.40;99.90
16140;DHT22;8175;49.326;12.690;2023-04-19T12:34:30;9.80;99.90
16140;DHT22;8175;49.326;12.690;2023-04-19T12:36:56;10.30;99.90
16140;DHT22;8175;49.326;12.690;2023-04-19T12:39:22;11.40;99.90
16140;DHT22;8175;49.326;12.690;2023-04-19T12:41:48;12.40;99.90
16140;DHT22;8175;49.326;12.690;2023-04-19T12:44:14;13.40;99.90
16140;DHT22;8175;49.326;12.690;2023-04-19T12:46:40;15.00;99.90
16140;DHT22;8175;49.326;12.690;2023-04-19T12:49:06;14.10;99.90
16140;DHT22;8175;49.326;12.690;2023-04-19T12:51:32;13.10;99.90
16140;DHT22;8175;49.326;12.690;2023-04-19T12:53:58;12.30;99.90
16140;DHT22;8175;49.326;12.690;2023-04-19T12:56:24;13.30;99.90
16140;DHT22;8175;49.326;12.690;2023-04-19T12:58:50;12.70;99.90
16140;DHT22;8175;49.326;12.690;2023-04-19T13:01:16;11.80;99.90
16140;DHT22;8175;49.326;12.690;2023-04-19T13:03:41;13.40;99.90
16140;DHT22;8175;49.326;12.690;2023-04-19T13:06:07;14.40;99.00
16140;DHT22;8175;49.326;12.690;2023-04-19T13:08:33;13.80;99.20
16140;DHT22;8175;49.326;12.690;2023-04-19T13:10:59;13.50;95.40
16140;DHT22;8175;49.326;12.690;2023-04-19T13:13:24;13.80;93.70
16140;DHT22;8175;49.326;12.690;2023-04-19T13:15:50;14.40;90.30
16140;DHT22;8175;49.326;12.690;2023-04-19T13:18:17;13.40;86.90
16140;DHT22;8175;49.326;12.690;2023-04-19T13:20:43;12.00;90.30
16140;DHT22;8175;49.326;12.690;2023-04-19T13:23:08;12.30;89.80
16140;DHT22;8175;49.326;12.690;2023-04-19T13:25:34;12.80;88.40
16140;DHT22;8175;49.326;12.690;2023-04-19T13:28:00;14.70;94.40
16140;DHT22;8175;49.326;12.690;2023-04-19T13:30:25;14.10;82.50
16140;DHT22;8175;49.326;12.690;2023-04-19T13:32:51;13.90;90.30
16140;DHT22;8175;49.326;12.690;2023-04-19T13:35:17;13.30;79.10
16140;DHT22;8175;49.326;12.690;2023-04-19T13:37:42;13.70;77.10
16140;DHT22;8175;49.326;12.690;2023-04-19T13:40:11;13.70;82.20
16140;DHT22;8175;49.326;12.690;2023-04-19T13:42:37;13.60;81.60
16140;DHT22;8175;49.326;12.690;2023-04-19T13:45:02;13.30;78.90
16140;DHT22;8175;49.326;12.690;2023-04-19T13:47:28;12.90;83.50
16140;DHT22;8175;49.326;12.690;2023-04-19T13:49:54;12.20;81.60
16140;DHT22;8175;49.326;12.690;2023-04-19T13:52:20;11.50;86.40
16140;DHT22;8175;49.326;12.690;2023-04-19T13:54:47;10.80;88.50
16140;DHT22;8175;49.326;12.690;2023-04-19T13:57:13;11.00;89.60
16140;DHT22;8175;49.326;12.690;2023-04-19T13:59:39;11.10;90.80
16140;DHT22;8175;49.326;12.690;2023-04-19T14:02:05;10.10;87.80
16140;DHT22;8175;49.326;12.690;2023-04-19T14:04:31;9.80;91.50
16140;DHT22;8175;49.326;12.690;2023-04-19T14:06:56;9.50;92.40
16140;DHT22;8175;49.326;12.690;2023-04-19T14:09:22;9.70;93.50
16140;DHT22;8175;49.326;12.690;2023-04-19T14:11:48;9.50;92.30
16140;DHT22;8175;49.326;12.690;2023-04-19T14:14:14;9.40;93.50
16140;DHT22;8175;49.326;12.690;2023-04-19T14:16:40;9.40;95.40
16140;DHT22;8175;49.326;12.690;2023-04-19T14:19:05;9.50;95.90
16140;DHT22;8175;49.326;12.690;2023-04-19T14:21:31;9.80;94.20
16140;DHT22;8175;49.326;12.690;2023-04-19T14:23:57;11.10;96.10
16140;DHT22;8175;49.326;12.690;2023-04-19T14:26:23;11.20;89.50
16140;DHT22;8175;49.326;12.690;2023-04-19T14:28:48;11.30;90.70
16140;DHT22;8175;49.326;12.690;2023-04-19T14:31:14;11.80;91.00
16140;DHT22;8175;49.326;12.690;2023-04-19T14:33:40;11.40;89.00
16140;DHT22;8175;49.326;12.690;2023-04-19T14:36:06;10.60;90.70
16140;DHT22;8175;49.326;12.690;2023-04-19T14:38:31;10.20;91.70
16140;DHT22;8175;49.326;12.690;2023-04-19T14:40:58;9.60;93.00
16140;DHT22;8175;49.326;12.690;2023-04-19T14:43:24;10.10;91.90
16140;DHT22;8175;49.326;12.690;2023-04-19T14:45:50;11.10;91.30
16140;DHT22;8175;49.326;12.690;2023-04-19T14:48:16;12.00;92.50
16140;DHT22;8175;49.326;12.690;2023-04-19T14:50:42;12.50;87.60
16140;DHT22;8175;49.326;12.690;2023-04-19T14:53:08;12.40;81.30
16140;DHT22;8175;49.326;12.690;2023-04-19T14:55:36;12.30;80.50
16140;DHT22;8175;49.326;12.690;2023-04-19T14:58:01;10.30;84.20
16140;DHT22;8175;49.326;12.690;2023-04-19T15:00:27;9.50;90.40
16140;DHT22;8175;49.326;12.690;2023-04-19T15:02:53;9.00;89.30
16140;DHT22;8175;49.326;12.690;2023-04-19T15:05:21;9.10;89.80
16140;DHT22;8175;49.326;12.690;2023-04-19T15:07:46;9.10;91.10
16140;DHT22;8175;49.326;12.690;2023-04-19T15:10:12;9.90;90.00
16140;DHT22;8175;49.326;12.690;2023-04-19T15:12:38;9.80;86.60
16140;DHT22;8175;49.326;12.690;2023-04-19T15:15:04;9.90;90.90
16140;DHT22;8175;49.326;12.690;2023-04-19T15:17:30;9.80;90.70
16140;DHT22;8175;49.326;12.690;2023-04-19T15:19:56;9.70;86.90
16140;DHT22;8175;49.326;12.690;2023-04-19T15:22:22;9.40;90.00
16140;DHT22;8175;49.326;12.690;2023-04-19T15:24:48;9.50;90.40
16140;DHT22;8175;49.326;12.690;2023-04-19T15:27:14;9.60;90.00
16140;DHT22;8175;49.326;12.690;2023-04-19T15:29:40;9.70;90.60
16140;DHT22;8175;49.326;12.690;2023-04-19T15:32:05;9.60;87.90
16140;DHT22;8175;49.326;12.690;2023-04-19T15:34:31;9.90;86.20
16140;DHT22;8175;49.326;12.690;2023-04-19T15:36:57;9.70;83.80
16140;DHT22;8175;49.326;12.690;2023-04-19T15:39:23;9.40;83.60
16140;DHT22;8175;49.326;12.690;2023-04-19T15:41:50;10.00;83.60
16140;DHT22;8175;49.326;12.690;2023-04-19T15:44:15;10.40;84.80
16140;DHT22;8175;49.326;12.690;2023-04-19T15:46:41;10.60;83.70
16140;DHT22;8175;49.326;12.690;2023-04-19T15:49:06;10.90;83.40
16140;DHT22;8175;49.326;12.690;2023-04-19T15:51:32;11.40;79.70
16140;DHT22;8175;49.326;12.690;2023-04-19T15:53:58;11.60;82.80
16140;DHT22;8175;49.326;12.690;2023-04-19T15:56:23;10.90;78.40
16140;DHT22;8175;49.326;12.690;2023-04-19T15:58:49;10.70;84.90
16140;DHT22;8175;49.326;12.690;2023-04-19T16:01:15;10.90;85.70
16140;DHT22;8175;49.326;12.690;2023-04-19T16:03:40;10.70;88.60
16140;DHT22;8175;49.326;12.690;2023-04-19T16:06:06;10.80;83.10
16140;DHT22;8175;49.326;12.690;2023-04-19T16:08:32;10.50;85.30
16140;DHT22;8175;49.326;12.690;2023-04-19T16:10:57;9.70;86.90
16140;DHT22;8175;49.326;12.690;2023-04-19T16:13:23;9.20;89.10
16140;DHT22;8175;49.326;12.690;2023-04-19T16:15:49;8.80;89.40
16140;DHT22;8175;49.326;12.690;2023-04-19T16:18:14;8.60;90.00
16140;DHT22;8175;49.326;12.690;2023-04-19T16:20:40;8.50;90.40
16140;DHT22;8175;49.326;12.690;2023-04-19T16:23:06;8.60;90.50
16140;DHT22;8175;49.326;12.690;2023-04-19T16:25:32;8.70;91.70
16140;DHT22;8175;49.326;12.690;2023-04-19T16:27:58;8.50;91.10
16140;DHT22;8175;49.326;12.690;2023-04-19T16:30:24;8.20;91.90
16140;DHT22;8175;49.326;12.690;2023-04-19T16:32:52;7.80;91.50
16140;DHT22;8175;49.326;12.690;2023-04-19T16:35:18;7.50;92.70
16140;DHT22;8175;49.326;12.690;2023-04-19T16:37:44;7.40;93.10
16140;DHT22;8175;49.326;12.690;2023-04-19T16:40:10;7.30;93.80
16140;DHT22;8175;49.326;12.690;2023-04-19T16:42:36;7.20;95.00
16140;DHT22;8175;49.326;12.690;2023-04-19T16:45:04;7.10;96.20
16140;DHT22;8175;49.326;12.690;2023-04-19T16:47:31;7.10;98.50
16140;DHT22;8175;49.326;12.690;2023-04-19T16:49:57;7.50;98.40
16140;DHT22;8175;49.326;12.690;2023-04-19T16:52:27;8.20;97.50
16140;DHT22;8175;49.326;12.690;2023-04-19T16:54:52;8.80;94.10
16140;DHT22;8175;49.326;12.690;2023-04-19T16:57:18;8.70;93.80
16140;DHT22;8175;49.326;12.690;2023-04-19T16:59:45;8.70;99.90
16140;DHT22;8175;49.326;12.690;2023-04-19T17:02:10;8.40;98.70
16140;DHT22;8175;49.326;12.690;2023-04-19T17:04:36;8.10;99.90
16140;DHT22;8175;49.326;12.690;2023-04-19T17:07:02;8.00;99.90
16140;DHT22;8175;49.326;12.690;2023-04-19T17:09:28;7.60;99.90
16140;DHT22;8175;49.326;12.690;2023-04-19T17:11:54;7.30;99.90
16140;DHT22;8175;49.326;12.690;2023-04-19T17:14:22;7.20;99.90
16140;DHT22;8175;49.326;12.690;2023-04-19T17:16:48;7.10;99.90
16140;DHT22;8175;49.326;12.690;2023-04-19T17:19:14;7.10;99.90
16140;DHT22;8175;49.326;12.690;2023-04-19T17:21:40;7.10;99.90
16140;DHT22;8175;49.326;12.690;2023-04-19T17:24:06;7.00;99.90
16140;DHT22;8175;49.326;12.690;2023-04-19T17:26:31;6.90;99.90
16140;DHT22;8175;49.326;12.690;2023-04-19T17:28:57;6.90;99.90
16140;DHT22;8175;49.326;12.690;2023-04-19T17:31:23;6.70;99.90
16140;DHT22;8175;49.326;12.690;2023-04-19T17:33:48;6.60;99.90
16140;DHT22;8175;49.326;12.690;2023-04-19T17:36:14;6.50;99.90
16140;DHT22;8175;49.326;12.690;2023-04-19T17:38:40;6.40;99.90
16140;DHT22;8175;49.326;12.690;2023-04-19T17:41:05;6.20;99.90
16140;DHT22;8175;49.326;12.690;2023-04-19T17:43:33;6.00;99.90
16140;DHT22;8175;49.326;12.690;2023-04-19T17:45:59;5.80;99.90
16140;DHT22;8175;49.326;12.690;2023-04-19T17:48:24;5.70;99.90
16140;DHT22;8175;49.326;12.690;2023-04-19T17:50:50;5.50;99.90
16140;DHT22;8175;49.326;12.690;2023-04-19T17:53:16;5.30;99.90
16140;DHT22;8175;49.326;12.690;2023-04-19T17:55:41;5.10;99.90
16140;DHT22;8175;49.326;12.690;2023-04-19T17:58:07;5.00;99.90
16140;DHT22;8175;49.326;12.690;2023-04-19T18:00:32;4.90;99.90
16140;DHT22;8175;49.326;12.690;2023-04-19T18:02:58;5.00;99.90
16140;DHT22;8175;49.326;12.690;2023-04-19T18:05:24;5.00;99.90
16140;DHT22;8175;49.326;12.690;2023-04-19T18:07:49;4.90;99.90
16140;DHT22;8175;49.326;12.690;2023-04-19T18:10:15;4.90;99.90
16140;DHT22;8175;49.326;12.690;2023-04-19T18:12:41;5.00;99.90
16140;DHT22;8175;49.326;12.690;2023-04-19T18:15:07;5.10;99.90
16140;DHT22;8175;49.326;12.690;2023-04-19T18:17:33;5.10;99.90
16140;DHT22;8175;49.326;12.690;2023-04-19T18:19:59;5.20;99.90
16140;DHT22;8175;49.326;12.690;2023-04-19T18:22:26;5.20;99.90
16140;DHT22;8175;49.326;12.690;2023-04-19T18:24:52;5.10;99.90
16140;DHT22;8175;49.326;12.690;2023-04-19T18:27:18;5.00;99.90
16140;DHT22;8175;49.326;12.690;2023-04-19T18:29:43;4.90;99.90
16140;DHT22;8175;49.326;12.690;2023-04-19T18:32:09;4.80;99.90
16140;DHT22;8175;49.326;12.690;2023-04-19T18:34:35;4.70;99.90
16140;DHT22;8175;49.326;12.690;2023-04-19T18:37:01;4.60;99.90
16140;DHT22;8175;49.326;12.690;2023-04-19T18:39:29;4.60;99.90
16140;DHT22;8175;49.326;12.690;2023-04-19T18:41:55;4.50;99.90
16140;DHT22;8175;49.326;12.690;2023-04-19T18:44:20;4.40;99.90
16140;DHT22;8175;49.326;12.690;2023-04-19T18:46:46;4.30;99.90
16140;DHT22;8175;49.326;12.690;2023-04-19T18:49:15;4.10;99.90
16140;DHT22;8175;49.326;12.690;2023-04-19T18:51:41;4.10;99.90
16140;DHT22;8175;49.326;12.690;2023-04-19T18:54:06;4.20;99.90
16140;DHT22;8175;49.326;12.690;2023-04-19T18:56:32;4.10;99.90
16140;DHT22;8175;49.326;12.690;2023-04-19T18:58:57;4.00;99.90
16140;DHT22;8175;49.326;12.690;2023-04-19T19:01:24;4.00;99.90
16140;DHT22;8175;49.326;12.690;2023-04-19T19:03:50;4.00;99.90
16140;DHT22;8175;49.326;12.690;2023-04-19T19:06:17;3.90;99.90
16140;DHT22;8175;49.326;12.690;2023-04-19T19:08:43;3.90;99.90
16140;DHT22;8175;49.326;12.690;2023-04-19T19:11:09;3.90;99.90
16140;DHT22;8175;49.326;12.690;2023-04-19T19:13:34;3.90;99.90
16140;DHT22;8175;49.326;12.690;2023-04-19T19:16:00;3.90;99.90
16140;DHT22;8175;49.326;12.690;2023-04-19T19:18:26;4.00;99.90
16140;DHT22;8175;49.326;12.690;2023-04-19T19:20:59;4.10;99.90
16140;DHT22;8175;49.326;12.690;2023-04-19T19:23:25;4.20;99.90
16140;DHT22;8175;49.326;12.690;2023-04-19T19:25:51;4.20;99.90
16140;DHT22;8175;49.326;12.690;2023-04-19T19:28:16;4.30;99.90
16140;DHT22;8175;49.326;12.690;2023-04-19T19:30:43;4.30;99.90
16140;DHT22;8175;49.326;12.690;2023-04-19T19:33:10;4.40;99.90
16140;DHT22;8175;49.326;12.690;2023-04-19T19:35:36;4.30;99.90
16140;DHT22;8175;49.326;12.690;2023-04-19T19:38:01;4.30;99.90
16140;DHT22;8175;49.326;12.690;2023-04-19T19:40:27;4.30;99.90
16140;DHT22;8175;49.326;12.690;2023-04-19T19:42:53;4.30;99.90
16140;DHT22;8175;49.326;12.690;2023-04-19T19:45:19;4.30;99.90
16140;DHT22;8175;49.326;12.690;2023-04-19T19:47:44;4.40;99.90
16140;DHT22;8175;49.326;12.690;2023-04-19T19:50:10;4.40;99.90
16140;DHT22;8175;49.326;12.690;2023-04-19T19:52:38;4.40;99.90
16140;DHT22;8175;49.326;12.690;2023-04-19T19:55:04;4.40;99.90
16140;DHT22;8175;49.326;12.690;2023-04-19T19:57:30;4.30;99.90
16140;DHT22;8175;49.326;12.690;2023-04-19T19:59:56;4.20;99.90
16140;DHT22;8175;49.326;12.690;2023-04-19T20:02:23;4.10;99.90
16140;DHT22;8175;49.326;12.690;2023-04-19T20:04:49;4.00;99.90
16140;DHT22;8175;49.326;12.690;2023-04-19T20:07:14;4.00;99.90
16140;DHT22;8175;49.326;12.690;2023-04-19T20:09:40;4.00;99.90
16140;DHT22;8175;49.326;12.690;2023-04-19T20:12:06;3.90;99.90
16140;DHT22;8175;49.326;12.690;2023-04-19T20:14:35;3.90;99.90
16140;DHT22;8175;49.326;12.690;2023-04-19T20:17:02;3.90;99.90
16140;DHT22;8175;49.326;12.690;2023-04-19T20:19:27;4.00;99.90
16140;DHT22;8175;49.326;12.690;2023-04-19T20:21:53;4.10;99.90
16140;DHT22;8175;49.326;12.690;2023-04-19T20:24:18;4.10;99.90
16140;DHT22;8175;49.326;12.690;2023-04-19T20:26:49;4.00;99.90
16140;DHT22;8175;49.326;12.690;2023-04-19T20:29:14;4.00;99.90
16140;DHT22;8175;49.326;12.690;2023-04-19T20:31:41;3.90;99.90
16140;DHT22;8175;49.326;12.690;2023-04-19T20:34:07;3.80;99.90
16140;DHT22;8175;49.326;12.690;2023-04-19T20:36:32;3.80;99.90
16140;DHT22;8175;49.326;12.690;2023-04-19T20:38:58;3.80;99.90
16140;DHT22;8175;49.326;12.690;2023-04-19T20:41:26;3.80;99.90
16140;DHT22;8175;49.326;12.690;2023-04-19T20:43:52;3.80;99.90
16140;DHT22;8175;49.326;12.690;2023-04-19T20:46:21;3.80;99.90
16140;DHT22;8175;49.326;12.690;2023-04-19T20:48:47;3.80;99.90
16140;DHT22;8175;49.326;12.690;2023-04-19T20:51:12;3.80;99.90
16140;DHT22;8175;49.326;12.690;2023-04-19T20:53:39;3.80;99.90
16140;DHT22;8175;49.326;12.690;2023-04-19T20:56:05;3.90;99.90
16140;DHT22;8175;49.326;12.690;2023-04-19T20:58:31;4.00;99.90
16140;DHT22;8175;49.326;12.690;2023-04-19T21:00:57;4.00;99.90
16140;DHT22;8175;49.326;12.690;2023-04-19T21:03:23;4.10;99.90
16140;DHT22;8175;49.326;12.690;2023-04-19T21:05:49;4.10;99.90
16140;DHT22;8175;49.326;12.690;2023-04-19T21:08:14;4.10;99.90
16140;DHT22;8175;49.326;12.690;2023-04-19T21:10:41;4.00;99.90
16140;DHT22;8175;49.326;12.690;2023-04-19T21:13:06;3.90;99.90
16140;DHT22;8175;49.326;12.690;2023-04-19T21:15:32;3.90;99.90